Time;durP1;ratioP1;P1;durP2;ratioP2;P2;SDS_P1;SDS_P2;PMS_P1;PMS_P2;Temp;Humidity;BMP_temperature;BMP_pressure;BME280_temperature;BME280_humidity;BME280_pressure;Samples;Min_cycle;Max_cycle;Signal;HPM_P1;HPM_P2
2022/11/15 00:00:49;;;;;;;26.98;19.73;;;8.20;99.90;;;;;;5015806;28;20048;-56
2022/11/15 00:03:17;;;;;;;25.83;19.67;;;7.20;99.90;;;;;;5013462;28;20170;-57
2022/11/15 00:05:43;;;;;;;28.65;20.10;;;7.10;99.90;;;;;;5013526;28;20287;-57
2022/11/15 00:08:09;;;;;;;28.60;19.73;;;6.80;99.90;;;;;;5015908;28;20041;-56
2022/11/15 00:10:35;;;;;;;28.65;20.27;;;6.90;99.90;;;;;;5017424;28;20083;-56
2022/11/15 00:13:08;;;;;;;27.48;19.83;;;6.90;99.90;;;;;;5015108;28;20041;-56
2022/11/15 00:15:38;;;;;;;27.95;19.92;;;6.80;99.90;;;;;;5013612;28;20048;-57
2022/11/15 00:18:05;;;;;;;31.30;20.80;;;6.70;99.90;;;;;;5013032;28;20044;-57
2022/11/15 00:20:34;;;;;;;27.05;20.02;;;6.70;99.90;;;;;;5014219;28;20041;-57
2022/11/15 00:22:59;;;;;;;27.27;20.02;;;6.70;99.90;;;;;;5012873;28;20041;-57
2022/11/15 00:25:27;;;;;;;32.85;20.70;;;6.90;99.90;;;;;;5014791;28;20091;-57
2022/11/15 00:27:56;;;;;;;29.25;20.52;;;6.80;99.90;;;;;;5012923;28;20103;-57
2022/11/15 00:30:22;;;;;;;31.77;20.50;;;6.90;99.90;;;;;;5015428;28;20047;-57
2022/11/15 00:32:48;;;;;;;29.13;19.35;;;6.80;99.90;;;;;;5016605;28;20048;-57
2022/11/15 00:35:14;;;;;;;29.35;19.52;;;7.00;99.90;;;;;;5014977;28;24263;-57
2022/11/15 00:37:40;;;;;;;28.75;19.13;;;6.90;99.90;;;;;;5016749;28;20123;-56
2022/11/15 00:40:07;;;;;;;29.17;19.83;;;7.10;99.90;;;;;;5013219;28;20152;-57
2022/11/15 00:42:33;;;;;;;26.45;19.48;;;7.00;99.90;;;;;;5014901;28;20053;-56
2022/11/15 00:44:58;;;;;;;27.95;20.92;;;7.10;99.90;;;;;;5016661;28;20508;-56
2022/11/15 00:47:24;;;;;;;29.67;20.83;;;7.00;99.90;;;;;;5014400;28;20056;-56
2022/11/15 00:49:50;;;;;;;30.02;20.00;;;7.00;99.90;;;;;;5016177;28;20418;-56
2022/11/15 00:52:15;;;;;;;26.67;19.88;;;7.10;99.90;;;;;;5011834;28;20045;-56
2022/11/15 00:54:41;;;;;;;30.33;21.38;;;7.20;99.90;;;;;;5014970;28;20072;-56
2022/11/15 00:57:07;;;;;;;28.30;18.85;;;7.10;99.90;;;;;;5016282;28;20140;-56
2022/11/15 00:59:33;;;;;;;27.90;19.85;;;7.90;99.90;;;;;;5014298;28;20045;-56
2022/11/15 01:01:58;;;;;;;26.75;19.88;;;7.20;99.90;;;;;;5017337;28;20041;-56
2022/11/15 01:04:24;;;;;;;28.35;19.58;;;7.40;99.90;;;;;;5016605;28;20041;-56
2022/11/15 01:06:50;;;;;;;25.98;19.10;;;8.20;99.90;;;;;;5017625;28;20064;-56
2022/11/15 01:09:15;;;;;;;25.65;19.38;;;7.10;99.90;;;;;;5016855;28;20049;-56
2022/11/15 01:11:41;;;;;;;28.48;21.05;;;7.30;99.90;;;;;;5013850;28;20033;-56
2022/11/15 01:14:07;;;;;;;26.83;19.13;;;7.10;99.90;;;;;;5019442;28;20046;-57
2022/11/15 01:16:33;;;;;;;29.98;20.63;;;7.20;99.90;;;;;;5013952;28;20049;-56
2022/11/15 01:18:59;;;;;;;25.52;20.50;;;7.00;99.90;;;;;;5015706;28;20159;-57
2022/11/15 01:21:25;;;;;;;28.70;20.88;;;7.20;99.90;;;;;;5014926;28;20128;-57
2022/11/15 01:23:57;;;;;;;31.30;22.75;;;7.20;99.90;;;;;;5012917;28;20051;-57
2022/11/15 01:26:23;;;;;;;28.27;22.02;;;7.30;99.90;;;;;;5014755;28;20044;-56
2022/11/15 01:28:49;;;;;;;28.73;23.02;;;7.10;99.90;;;;;;5018184;28;20040;-57
2022/11/15 01:31:19;;;;;;;29.05;22.50;;;7.10;99.90;;;;;;5016656;28;20044;-56
2022/11/15 01:33:46;;;;;;;29.17;22.35;;;7.20;99.90;;;;;;5013873;28;20045;-57
2022/11/15 01:36:15;;;;;;;29.20;21.33;;;7.00;99.90;;;;;;5014113;28;20135;-57
2022/11/15 01:38:41;;;;;;;29.95;22.63;;;7.00;99.90;;;;;;5014624;28;20329;-56
2022/11/15 01:41:17;;;;;;;30.23;22.88;;;7.10;99.90;;;;;;5014950;28;20060;-57
2022/11/15 01:43:42;;;;;;;31.20;22.77;;;7.00;99.90;;;;;;5014427;28;20038;-56
2022/11/15 01:46:34;;;;;;;29.25;22.95;;;7.10;99.90;;;;;;5016119;28;20430;-56
2022/11/15 01:49:05;;;;;;;30.27;22.25;;;6.90;99.90;;;;;;5013427;28;20597;-57
2022/11/15 01:51:33;;;;;;;36.80;23.55;;;7.10;99.90;;;;;;5015264;28;20055;-57
2022/11/15 01:54:07;;;;;;;29.00;21.75;;;6.80;99.90;;;;;;5014919;28;20308;-57
2022/11/15 01:56:38;;;;;;;32.33;23.40;;;6.90;99.90;;;;;;5018652;28;20539;-57
2022/11/15 01:59:06;;;;;;;32.17;22.27;;;7.00;99.90;;;;;;5018208;28;20414;-56
2022/11/15 02:01:33;;;;;;;28.55;21.55;;;6.90;99.90;;;;;;5018144;28;20060;-57
2022/11/15 02:04:24;;;;;;;31.10;23.13;;;6.90;99.90;;;;;;5019436;28;20890;-57
2022/11/15 02:06:50;;;;;;;32.83;22.85;;;6.80;99.90;;;;;;5016679;28;20099;-57
2022/11/15 02:09:17;;;;;;;31.77;21.88;;;6.90;99.90;;;;;;5017998;28;20047;-57
2022/11/15 02:11:45;;;;;;;29.38;22.48;;;6.80;99.90;;;;;;5016378;28;20522;-57
2022/11/15 02:14:11;;;;;;;35.58;22.85;;;;;;;;;;5016355;28;20528;-57
2022/11/15 02:17:01;;;;;;;32.70;22.83;;;6.80;99.90;;;;;;5016068;28;20592;-57
2022/11/15 02:19:33;;;;;;;27.95;21.50;;;6.90;99.90;;;;;;5018940;28;20514;-57
2022/11/15 02:22:45;;;;;;;31.45;21.77;;;6.80;99.90;;;;;;5021520;28;20098;-57
2022/11/15 02:25:31;;;;;;;31.60;20.80;;;6.80;99.90;;;;;;5016456;28;20691;-56
2022/11/15 02:28:21;;;;;;;36.00;22.40;;;6.80;99.90;;;;;;5022139;28;20037;-57
2022/11/15 02:31:06;;;;;;;29.38;21.35;;;6.80;99.90;;;;;;5018908;28;20403;-57
2022/11/15 02:33:32;;;;;;;32.58;21.17;;;6.70;99.90;;;;;;5011484;28;20611;-57
2022/11/15 02:36:10;;;;;;;36.13;21.60;;;6.80;99.90;;;;;;5018668;28;20050;-57
2022/11/15 02:38:42;;;;;;;35.28;21.45;;;6.80;99.90;;;;;;5015341;28;20045;-57
2022/11/15 02:41:21;;;;;;;31.10;21.10;;;6.70;99.90;;;;;;5019342;28;20057;-57
2022/11/15 02:43:56;;;;;;;37.75;23.33;;;6.80;99.90;;;;;;5018351;28;20111;-56
2022/11/15 02:49:16;;;;;;;38.63;23.08;;;6.80;99.90;;;;;;5016786;28;20196;-57
2022/11/15 02:51:44;;;;;;;34.90;21.77;;;6.90;99.90;;;;;;5014460;28;20072;-57
2022/11/15 02:54:23;;;;;;;36.45;24.00;;;6.80;99.90;;;;;;5015270;28;20053;-57
2022/11/15 02:56:52;;;;;;;41.20;23.17;;;6.80;99.90;;;;;;5018448;28;20068;-57
2022/11/15 02:59:46;;;;;;;41.47;24.60;;;6.60;99.90;;;;;;5017388;28;20060;-57
2022/11/15 03:02:37;;;;;;;38.33;23.70;;;6.80;99.90;;;;;;5015314;28;20050;-57
2022/11/15 03:05:25;;;;;;;43.97;24.00;;;6.70;99.90;;;;;;5016097;28;20037;-57
2022/11/15 03:08:00;;;;;;;42.67;23.25;;;6.70;99.90;;;;;;5015708;28;20141;-57
2022/11/15 03:10:54;;;;;;;39.70;24.23;;;6.70;99.90;;;;;;5018715;28;20465;-57
2022/11/15 03:13:29;;;;;;;38.85;23.10;;;6.60;99.90;;;;;;5016372;28;20052;-57
2022/11/15 03:16:23;;;;;;;39.58;23.65;;;6.70;99.90;;;;;;5017951;28;20168;-56
2022/11/15 03:19:18;;;;;;;38.33;22.73;;;6.80;99.90;;;;;;5011581;28;20045;-57
2022/11/15 03:21:46;;;;;;;41.25;23.90;;;6.70;99.90;;;;;;5019552;28;20469;-56
2022/11/15 03:24:14;;;;;;;40.72;23.77;;;6.70;99.90;;;;;;5016370;28;20064;-57
2022/11/15 03:26:43;;;;;;;44.30;24.20;;;6.90;99.90;;;;;;5017104;28;20096;-57
2022/11/15 03:29:22;;;;;;;39.17;23.13;;;6.60;99.90;;;;;;5018722;28;20076;-56
2022/11/15 03:31:54;;;;;;;42.13;23.83;;;6.90;99.90;;;;;;5019292;28;20136;-56
2022/11/15 03:34:36;;;;;;;42.45;24.45;;;6.80;99.90;;;;;;5017159;28;20130;-56
2022/11/15 03:37:02;;;;;;;46.87;24.53;;;6.80;99.90;;;;;;5015480;28;20359;-56
2022/11/15 03:39:29;;;;;;;39.90;24.13;;;6.80;99.90;;;;;;5017482;28;20390;-57
2022/11/15 03:42:19;;;;;;;44.65;25.35;;;6.90;99.90;;;;;;5019258;28;20057;-57
2022/11/15 03:44:53;;;;;;;48.40;25.02;;;7.00;99.90;;;;;;5018274;28;20067;-57
2022/11/15 03:47:26;;;;;;;46.17;24.35;;;7.00;99.90;;;;;;5016937;28;20845;-57
2022/11/15 03:49:55;;;;;;;45.53;25.13;;;7.00;99.90;;;;;;5013250;28;20183;-56
2022/11/15 03:52:22;;;;;;;43.72;24.30;;;7.00;99.90;;;;;;5016620;28;20049;-57
2022/11/15 03:54:56;;;;;;;46.90;24.50;;;6.90;99.90;;;;;;5017884;28;20048;-57
2022/11/15 03:57:22;;;;;;;44.72;24.40;;;7.00;99.90;;;;;;5019611;28;20496;-56
2022/11/15 03:59:48;;;;;;;44.22;24.30;;;8.40;99.90;;;;;;5026844;28;20126;-57
2022/11/15 04:02:14;;;;;;;46.78;24.50;;;6.90;99.90;;;;;;5013449;28;20049;-56
2022/11/15 04:04:40;;;;;;;45.58;24.60;;;7.10;99.90;;;;;;5014516;28;20132;-56
2022/11/15 04:07:05;;;;;;;47.25;25.17;;;7.20;99.90;;;;;;5016043;28;20043;-57
2022/11/15 04:09:31;;;;;;;50.90;26.08;;;8.60;99.90;;;;;;5015492;28;20033;-57
2022/11/15 04:11:57;;;;;;;47.70;26.85;;;7.10;99.90;;;;;;5015335;28;20259;-56
2022/11/15 04:14:23;;;;;;;44.80;24.38;;;6.90;99.90;;;;;;5017039;28;20033;-57
2022/11/15 04:16:49;;;;;;;54.78;27.15;;;7.10;99.90;;;;;;5013983;28;20041;-57
2022/11/15 04:24:43;;;;;;;56.45;26.65;;;8.60;99.90;;;;;;5019286;28;20052;-57
2022/11/15 04:27:08;;;;;;;54.45;26.38;;;7.30;99.90;;;;;;5016136;28;20049;-57
2022/11/15 04:29:34;;;;;;;52.10;26.05;;;7.10;99.90;;;;;;5013585;28;20616;-56
2022/11/15 04:32:04;;;;;;;56.63;25.35;;;7.30;99.90;;;;;;5012994;28;20299;-57
2022/11/15 04:34:30;;;;;;;54.53;24.55;;;7.30;99.90;;;;;;5012960;28;20103;-57
2022/11/15 04:37:11;;;;;;;51.25;26.65;;;7.30;99.90;;;;;;5013579;28;20053;-56
2022/11/15 04:39:37;;;;;;;47.78;25.73;;;7.20;99.90;;;;;;5013432;28;20115;-56
2022/11/15 04:42:03;;;;;;;49.80;24.88;;;7.40;99.90;;;;;;5015654;28;20083;-56
2022/11/15 04:44:29;;;;;;;49.20;25.50;;;7.50;99.90;;;;;;5017671;28;20040;-55
2022/11/15 04:46:54;;;;;;;50.00;25.35;;;7.40;99.90;;;;;;5013016;28;20037;-57
2022/11/15 04:49:20;;;;;;;55.20;28.35;;;7.40;99.90;;;;;;5013914;28;20052;-57
2022/11/15 04:51:46;;;;;;;55.15;26.73;;;8.60;99.90;;;;;;5014962;28;20103;-57
2022/11/15 04:54:12;;;;;;;58.38;26.38;;;7.40;99.90;;;;;;5018527;28;20184;-57
2022/11/15 04:56:37;;;;;;;56.63;26.70;;;7.50;99.90;;;;;;5015494;28;20254;-57
2022/11/15 04:59:03;;;;;;;51.55;25.73;;;8.20;99.90;;;;;;5014870;28;20072;-57
2022/11/15 05:01:29;;;;;;;59.38;26.55;;;8.50;99.90;;;;;;5015472;28;20069;-57
2022/11/15 05:06:39;;;;;;;55.72;27.38;;;7.70;99.90;;;;;;5016549;28;20132;-57
2022/11/15 05:09:05;;;;;;;58.38;28.02;;;7.60;99.90;;;;;;5013336;28;20037;-56
2022/11/15 05:11:30;;;;;;;59.90;29.05;;;8.40;99.90;;;;;;5019697;28;20073;-56
2022/11/15 05:13:56;;;;;;;59.28;29.10;;;8.30;99.90;;;;;;5016828;28;20049;-56
2022/11/15 05:16:22;;;;;;;66.68;29.33;;;7.60;99.90;;;;;;5015158;28;20038;-57
2022/11/15 05:18:51;;;;;;;58.55;28.75;;;9.50;99.90;;;;;;5015091;28;20375;-57
2022/11/15 05:21:18;;;;;;;67.00;29.35;;;7.70;99.90;;;;;;5014164;28;20363;-56
2022/11/15 05:23:43;;;;;;;60.05;28.58;;;8.00;99.90;;;;;;5018159;28;20041;-57
2022/11/15 05:26:09;;;;;;;65.63;31.17;;;7.80;99.90;;;;;;5016839;28;20053;-57
2022/11/15 05:28:36;;;;;;;68.00;30.23;;;9.20;99.90;;;;;;5015354;28;20072;-57
2022/11/15 05:31:10;;;;;;;77.78;32.97;;;7.80;99.90;;;;;;5019210;28;20084;-57
2022/11/15 05:33:38;;;;;;;72.57;32.90;;;8.80;99.90;;;;;;5022399;28;20044;-57
2022/11/15 05:36:07;;;;;;;76.05;33.53;;;7.80;99.90;;;;;;5018461;28;20037;-57
2022/11/15 05:38:33;;;;;;;78.22;34.72;;;8.00;99.90;;;;;;5021536;28;20083;-57
2022/11/15 05:41:00;;;;;;;84.35;34.70;;;8.10;99.90;;;;;;5016740;28;20048;-56
2022/11/15 05:43:27;;;;;;;77.85;34.10;;;8.10;99.90;;;;;;5015455;28;20049;-56
2022/11/15 05:45:52;;;;;;;77.38;33.33;;;9.90;99.90;;;;;;5018351;28;20494;-56
2022/11/15 05:48:19;;;;;;;85.82;34.50;;;10.20;99.90;;;;;;5016981;28;20038;-56
2022/11/15 05:50:47;;;;;;;82.68;34.88;;;8.20;99.90;;;;;;5018418;28;20544;-56
2022/11/15 05:53:15;;;;;;;81.47;35.03;;;8.50;99.90;;;;;;5015189;28;20088;-57
2022/11/15 05:55:41;;;;;;;79.95;35.10;;;9.70;99.90;;;;;;5017986;28;20138;-56
2022/11/15 05:58:08;;;;;;;95.28;38.15;;;8.90;99.90;;;;;;5021266;28;20804;-56
2022/11/15 06:00:34;;;;;;;83.90;36.75;;;9.00;99.90;;;;;;5018777;28;20052;-57
2022/11/15 06:03:00;;;;;;;84.55;35.40;;;8.30;99.90;;;;;;5017069;28;20049;-57
2022/11/15 06:05:26;;;;;;;100.78;39.42;;;9.10;99.90;;;;;;5017273;28;20041;-57
2022/11/15 06:07:52;;;;;;;93.85;37.83;;;9.20;99.90;;;;;;5017172;28;20045;-57
2022/11/15 06:10:17;;;;;;;90.35;38.70;;;8.60;99.90;;;;;;5015988;28;20136;-57
2022/11/15 06:12:43;;;;;;;89.80;35.60;;;8.90;99.90;;;;;;5015942;28;20154;-56
2022/11/15 06:15:09;;;;;;;86.68;36.78;;;8.30;99.90;;;;;;5016777;28;20308;-56
2022/11/15 06:17:35;;;;;;;85.63;37.67;;;8.40;99.90;;;;;;5015912;28;20589;-55
2022/11/15 06:20:00;;;;;;;109.32;41.05;;;9.70;99.90;;;;;;5018077;28;20038;-57
2022/11/15 06:22:26;;;;;;;102.88;43.20;;;9.30;99.90;;;;;;5018382;28;20048;-56
2022/11/15 06:24:52;;;;;;;87.30;38.22;;;9.80;99.90;;;;;;5022858;28;20037;-56
2022/11/15 06:27:17;;;;;;;100.88;40.17;;;8.50;99.90;;;;;;5016400;28;20049;-57
2022/11/15 06:29:43;;;;;;;97.47;39.60;;;10.20;99.90;;;;;;5016399;28;20045;-56
2022/11/15 06:32:09;;;;;;;97.75;40.53;;;8.80;99.90;;;;;;5016518;28;20045;-57
2022/11/15 06:34:35;;;;;;;131.70;45.60;;;8.70;99.90;;;;;;5017817;28;20087;-56
2022/11/15 06:37:02;;;;;;;128.07;45.05;;;9.10;99.90;;;;;;5015464;28;20045;-56
2022/11/15 06:39:28;;;;;;;119.03;42.90;;;9.50;99.90;;;;;;5016200;28;20041;-56
2022/11/15 06:41:53;;;;;;;115.80;44.13;;;8.90;99.90;;;;;;5011658;28;20731;-57
2022/11/15 06:44:19;;;;;;;128.57;45.92;;;9.00;99.90;;;;;;5018252;28;20111;-56
2022/11/15 06:46:45;;;;;;;119.93;45.30;;;8.90;99.90;;;;;;5018759;28;20047;-57
2022/11/15 06:49:10;;;;;;;116.10;44.70;;;10.90;99.90;;;;;;5018869;28;20029;-56
2022/11/15 06:51:36;;;;;;;128.32;45.88;;;9.20;99.90;;;;;;5013634;28;20056;-56
2022/11/15 06:54:02;;;;;;;125.93;45.28;;;8.90;99.90;;;;;;5016274;28;20045;-55
2022/11/15 06:56:28;;;;;;;120.47;44.47;;;9.00;99.90;;;;;;5018047;28;20041;-57
2022/11/15 06:58:54;;;;;;;120.97;45.83;;;11.10;99.90;;;;;;5026212;28;20187;-56
2022/11/15 07:01:20;;;;;;;123.00;45.33;;;9.30;99.90;;;;;;5016237;28;20740;-56
2022/11/15 07:03:46;;;;;;;111.03;44.97;;;9.90;99.90;;;;;;5016174;28;20121;-56
2022/11/15 07:06:12;;;;;;;117.90;45.83;;;9.20;99.90;;;;;;5013695;28;20052;-56
2022/11/15 07:08:37;;;;;;;106.85;44.50;;;10.10;99.90;;;;;;5014025;28;20396;-57
2022/11/15 07:11:06;;;;;;;110.63;44.22;;;9.30;99.90;;;;;;5015565;28;20618;-57
2022/11/15 07:13:33;;;;;;;104.97;42.45;;;11.40;99.90;;;;;;5014322;28;20140;-57
2022/11/15 07:16:06;;;;;;;110.90;44.33;;;10.30;99.90;;;;;;5015673;28;20073;-57
2022/11/15 07:18:34;;;;;;;101.75;44.60;;;9.20;99.90;;;;;;5020063;28;20049;-57
2022/11/15 07:21:02;;;;;;;98.13;45.13;;;9.40;99.90;;;;;;5025490;28;20048;-56
2022/11/15 07:23:28;;;;;;;104.35;44.45;;;10.30;99.90;;;;;;5014341;28;20048;-56
2022/11/15 07:25:53;;;;;;;99.55;43.30;;;9.30;99.90;;;;;;5017210;28;20405;-57
2022/11/15 07:28:19;;;;;;;89.13;40.95;;;9.50;99.90;;;;;;5014931;28;20140;-57
2022/11/15 07:30:44;;;;;;;98.63;43.35;;;9.70;99.90;;;;;;5014635;28;20077;-57
2022/11/15 07:33:10;;;;;;;102.97;42.90;;;9.30;99.90;;;;;;5016387;28;20195;-57
2022/11/15 07:35:36;;;;;;;94.35;42.60;;;9.70;99.90;;;;;;5016740;28;20037;-57
2022/11/15 07:38:03;;;;;;;93.75;41.47;;;9.80;99.90;;;;;;5017423;28;20539;-56
2022/11/15 07:40:31;;;;;;;89.43;40.88;;;9.50;99.90;;;;;;5015525;28;20049;-56
2022/11/15 07:43:08;;;;;;;87.35;40.75;;;9.50;99.90;;;;;;5018236;28;20615;-57
2022/11/15 07:45:34;;;;;;;88.10;41.38;;;9.60;99.90;;;;;;5050505;28;20049;-57
2022/11/15 07:48:00;;;;;;;78.68;40.25;;;9.50;99.90;;;;;;5020141;28;20041;-57
2022/11/15 07:50:29;;;;;;;76.32;39.20;;;9.70;99.90;;;;;;5014733;28;20040;-56
2022/11/15 07:52:57;;;;;;;83.80;39.92;;;9.90;99.90;;;;;;5017372;28;20103;-56
2022/11/15 07:55:29;;;;;;;75.05;39.45;;;9.80;99.90;;;;;;5016201;28;20042;-56
2022/11/15 07:58:04;;;;;;;79.00;39.17;;;11.20;99.90;;;;;;5014453;28;20473;-56
2022/11/15 08:00:30;;;;;;;74.03;38.97;;;10.00;99.90;;;;;;5016228;28;20110;-57
2022/11/15 08:03:13;;;;;;;75.53;37.53;;;10.80;99.90;;;;;;5015800;28;20666;-57
2022/11/15 08:05:40;;;;;;;67.38;36.95;;;9.90;99.90;;;;;;5016775;28;20076;-57
2022/11/15 08:08:07;;;;;;;73.35;37.50;;;9.90;99.90;;;;;;5014689;28;20052;-57
2022/11/15 08:10:33;;;;;;;86.30;38.33;;;10.20;99.90;;;;;;4999980;28;20030;-57
2022/11/15 08:13:01;;;;;;;71.57;37.97;;;9.80;99.90;;;;;;5012396;28;20038;-57
2022/11/15 08:15:27;;;;;;;68.30;36.53;;;11.50;99.90;;;;;;5014392;28;20041;-56
2022/11/15 08:17:54;;;;;;;67.75;35.63;;;9.90;99.90;;;;;;5016078;28;20068;-57
2022/11/15 08:20:20;;;;;;;64.72;37.17;;;10.10;99.90;;;;;;5014871;28;21322;-57
2022/11/15 08:22:46;;;;;;;64.80;36.55;;;10.70;99.90;;;;;;5013524;28;20037;-57
2022/11/15 08:25:11;;;;;;;60.00;35.33;;;10.20;99.90;;;;;;5011777;28;21148;-57
2022/11/15 08:27:37;;;;;;;61.28;34.05;;;10.10;99.90;;;;;;5013233;28;20124;-57
2022/11/15 08:30:03;;;;;;;63.30;35.30;;;10.80;99.90;;;;;;5012591;28;21174;-57
2022/11/15 08:32:30;;;;;;;56.22;34.83;;;10.40;99.90;;;;;;5020890;28;20041;-57
2022/11/15 08:34:56;;;;;;;59.65;35.72;;;10.30;99.90;;;;;;5015369;28;20088;-58
2022/11/15 08:37:22;;;;;;;60.22;35.35;;;11.20;99.90;;;;;;5014129;28;20167;-57
2022/11/15 08:39:47;;;;;;;56.88;33.08;;;10.00;99.90;;;;;;5013203;28;20049;-57
2022/11/15 08:42:14;;;;;;;51.70;32.97;;;10.60;99.90;;;;;;5013426;28;20041;-57
2022/11/15 08:44:40;;;;;;;57.92;34.45;;;10.70;99.90;;;;;;5014638;28;20794;-57
2022/11/15 08:47:06;;;;;;;52.70;33.28;;;10.70;99.90;;;;;;5010735;28;20380;-56
2022/11/15 08:49:32;;;;;;;56.10;33.38;;;10.60;99.90;;;;;;5017171;28;20067;-56
2022/11/15 08:51:58;;;;;;;53.08;32.22;;;10.90;99.90;;;;;;5013705;28;20449;-57
2022/11/15 08:54:23;;;;;;;48.13;31.15;;;10.80;99.90;;;;;;5012910;28;20568;-57
2022/11/15 08:56:49;;;;;;;51.40;29.92;;;11.00;99.90;;;;;;5013229;28;20180;-57
2022/11/15 08:59:15;;;;;;;48.53;30.25;;;10.90;99.90;;;;;;5017971;28;20131;-57
2022/11/15 09:01:41;;;;;;;47.45;30.25;;;10.70;99.90;;;;;;5015254;28;20124;-57
2022/11/15 09:04:06;;;;;;;40.92;28.98;;;11.90;99.90;;;;;;5014501;28;20053;-57
2022/11/15 09:06:32;;;;;;;42.22;27.60;;;12.50;99.90;;;;;;5015514;28;20103;-57
2022/11/15 09:08:59;;;;;;;40.33;28.15;;;11.20;99.90;;;;;;5013725;28;20441;-56
2022/11/15 09:11:26;;;;;;;43.92;27.85;;;10.70;99.90;;;;;;5013885;28;20477;-56
2022/11/15 09:13:52;;;;;;;44.08;26.48;;;10.80;99.90;;;;;;5014553;28;20195;-57
2022/11/15 09:16:18;;;;;;;40.83;27.95;;;10.80;99.90;;;;;;5015473;28;20038;-57
2022/11/15 09:18:43;;;;;;;42.00;26.58;;;11.70;99.90;;;;;;5014724;28;20053;-58
2022/11/15 09:21:10;;;;;;;41.30;26.52;;;11.50;99.90;;;;;;5013158;28;20037;-57
2022/11/15 09:23:36;;;;;;;37.90;26.10;;;11.00;99.90;;;;;;5015805;28;20042;-57
2022/11/15 09:26:04;;;;;;;36.45;25.98;;;11.00;99.90;;;;;;5014824;28;20670;-57
2022/11/15 09:28:30;;;;;;;37.90;25.83;;;10.90;99.90;;;;;;5013144;28;20037;-57
2022/11/15 09:31:01;;;;;;;39.03;26.30;;;11.00;99.90;;;;;;5024835;28;20045;-57
2022/11/15 09:33:27;;;;;;;40.63;27.00;;;10.90;99.90;;;;;;5010026;28;20045;-57
2022/11/15 09:35:53;;;;;;;35.22;25.48;;;10.70;99.90;;;;;;5012674;28;20049;-57
2022/11/15 09:38:20;;;;;;;36.28;26.65;;;11.00;99.90;;;;;;5016905;28;20113;-57
2022/11/15 09:40:51;;;;;;;35.78;25.13;;;10.80;99.90;;;;;;5023744;28;20047;-57
2022/11/15 09:43:44;;;;;;;37.67;26.08;;;10.80;99.90;;;;;;5015236;28;20410;-57
2022/11/15 09:46:29;;;;;;;37.25;25.50;;;11.00;99.90;;;;;;5015255;28;20044;-57
2022/11/15 09:48:58;;;;;;;34.65;24.52;;;10.80;99.90;;;;;;5015452;28;20045;-57
2022/11/15 09:51:29;;;;;;;34.75;25.27;;;11.50;99.90;;;;;;5014863;28;20613;-57
2022/11/15 09:54:02;;;;;;;32.80;24.00;;;11.00;99.90;;;;;;5014281;28;20053;-57
2022/11/15 09:56:34;;;;;;;33.10;23.40;;;11.30;99.90;;;;;;5012635;28;20056;-57
2022/11/15 09:59:21;;;;;;;37.70;24.77;;;12.40;99.90;;;;;;5015629;28;20417;-56
2022/11/15 10:02:34;;;;;;;33.72;23.20;;;11.10;99.90;;;;;;5011431;28;20808;-57
2022/11/15 10:05:00;;;;;;;;;;;11.20;99.90;;;;;;4973439;28;20064;-57
2022/11/15 10:07:40;;;;;;;29.63;22.80;;;11.30;99.90;;;;;;5014043;28;20313;-57
2022/11/15 10:10:18;;;;;;;34.60;23.35;;;11.20;99.90;;;;;;5012023;28;20037;-57
2022/11/15 10:12:47;;;;;;;30.85;22.23;;;11.20;99.90;;;;;;5016598;28;20185;-57
2022/11/15 10:15:15;;;;;;;32.78;22.13;;;13.30;99.90;;;;;;5014493;28;20128;-57
2022/11/15 10:17:56;;;;;;;37.10;22.48;;;11.10;99.90;;;;;;5018350;28;20041;-57
2022/11/15 10:20:25;;;;;;;34.08;22.13;;;11.20;99.90;;;;;;5017735;28;20072;-57
2022/11/15 10:22:52;;;;;;;26.95;20.73;;;11.30;99.90;;;;;;5016164;28;20444;-57
2022/11/15 10:25:22;;;;;;;29.50;21.55;;;11.40;99.90;;;;;;5016595;28;20041;-56
2022/11/15 10:28:28;;;;;;;29.67;20.70;;;11.20;99.90;;;;;;5016272;28;20501;-56
2022/11/15 10:30:56;;;;;;;30.30;21.77;;;11.30;99.90;;;;;;5011647;28;20049;-57
2022/11/15 10:33:25;;;;;;;27.73;20.85;;;11.50;99.90;;;;;;5016470;28;20045;-56
2022/11/15 10:36:09;;;;;;;29.40;20.02;;;13.00;99.90;;;;;;5017860;28;20080;-57
2022/11/15 10:38:49;;;;;;;29.08;20.15;;;11.60;99.90;;;;;;5021454;28;20107;-56
2022/11/15 10:41:18;;;;;;;25.00;19.45;;;9.60;99.90;;;;;;5017133;28;20060;-57
2022/11/15 10:43:44;;;;;;;28.13;20.42;;;12.70;99.90;;;;;;5016364;28;20052;-57
2022/11/15 10:46:21;;;;;;;29.30;18.95;;;11.80;99.90;;;;;;5017697;28;20038;-57
2022/11/15 10:48:46;;;;;;;26.52;17.83;;;11.60;99.90;;;;;;5018522;28;20562;-57
2022/11/15 10:51:29;;;;;;;26.08;19.23;;;11.60;99.90;;;;;;5019979;28;20045;-57
2022/11/15 10:54:00;;;;;;;27.50;18.92;;;11.70;99.90;;;;;;5022290;28;20663;-56
2022/11/15 10:56:27;;;;;;;27.60;17.55;;;11.50;99.90;;;;;;5014143;28;20046;-57
2022/11/15 10:58:56;;;;;;;29.73;17.35;;;11.60;99.90;;;;;;5015755;28;20037;-56
2022/11/15 11:01:24;;;;;;;25.73;16.95;;;11.70;99.90;;;;;;5025168;28;20087;-56
2022/11/15 11:04:09;;;;;;;25.02;17.85;;;11.70;99.90;;;;;;5015788;28;20037;-57
2022/11/15 11:06:47;;;;;;;23.35;15.50;;;11.70;99.90;;;;;;5015888;28;20055;-56
2022/11/15 11:09:42;;;;;;;23.35;16.10;;;12.80;99.90;;;;;;5017570;28;20410;-56
2022/11/15 11:12:11;;;;;;;19.70;14.75;;;11.90;99.90;;;;;;5014360;28;20115;-57
2022/11/15 11:14:38;;;;;;;25.80;15.70;;;11.80;99.90;;;;;;5017049;28;20095;-57
2022/11/15 11:17:17;;;;;;;18.17;14.48;;;11.80;99.90;;;;;;5014465;28;21427;-57
2022/11/15 11:20:17;;;;;;;19.33;13.90;;;11.90;99.90;;;;;;5020708;28;20653;-57
2022/11/15 11:23:10;;;;;;;19.08;13.32;;;12.00;99.90;;;;;;5019466;28;20046;-56
2022/11/15 11:25:39;;;;;;;27.17;15.13;;;12.00;99.90;;;;;;5014929;28;20562;-57
2022/11/15 11:28:35;;;;;;;21.08;13.40;;;12.00;99.90;;;;;;5019656;28;20040;-56
2022/11/15 11:31:38;;;;;;;18.20;12.73;;;12.00;99.90;;;;;;5018378;28;20059;-57
2022/11/15 11:34:17;;;;;;;;;;;12.10;99.90;;;;;;5019159;28;20045;-57
2022/11/15 11:36:57;;;;;;;17.08;11.00;;;12.00;99.90;;;;;;5015920;28;19931;-56
2022/11/15 11:39:58;;;;;;;15.15;10.90;;;11.90;99.90;;;;;;5013804;28;20533;-57
2022/11/15 11:42:30;;;;;;;14.45;9.75;;;12.10;99.90;;;;;;5017529;28;20561;-57
2022/11/15 11:45:04;;;;;;;14.18;9.68;;;12.10;99.90;;;;;;5019699;28;20402;-57
2022/11/15 11:47:40;;;;;;;14.10;9.98;;;12.10;99.90;;;;;;5012796;28;20041;-57
2022/11/15 11:50:20;;;;;;;14.00;8.65;;;12.40;99.90;;;;;;5015763;28;20052;-57
2022/11/15 11:52:49;;;;;;;12.10;7.03;;;12.30;99.90;;;;;;5014842;28;20072;-57
2022/11/15 11:55:21;;;;;;;12.82;7.38;;;12.80;99.90;;;;;;5016104;28;20422;-57
2022/11/15 11:58:18;;;;;;;11.98;6.47;;;12.30;99.90;;;;;;5016004;28;20091;-57
2022/11/15 12:00:55;;;;;;;12.63;6.07;;;12.00;99.90;;;;;;5017835;28;20046;-57
2022/11/15 12:03:25;;;;;;;10.52;5.93;;;12.10;99.90;;;;;;5016233;28;20044;-57
2022/11/15 12:06:02;;;;;;;9.15;5.28;;;12.10;99.90;;;;;;5017723;28;20139;-57
2022/11/15 12:08:58;;;;;;;11.23;5.30;;;12.10;99.90;;;;;;5014500;28;20188;-57
2022/11/15 12:11:43;;;;;;;11.90;5.18;;;12.10;99.90;;;;;;5020648;28;20175;-57
2022/11/15 12:14:30;;;;;;;13.00;4.90;;;12.20;99.90;;;;;;5012139;28;20041;-57
2022/11/15 12:16:58;;;;;;;8.00;3.70;;;12.10;99.90;;;;;;5013824;28;20052;-57
2022/11/15 12:19:24;;;;;;;8.15;4.50;;;12.00;99.90;;;;;;5013714;28;20060;-57
2022/11/15 12:22:10;;;;;;;6.70;3.60;;;12.80;99.90;;;;;;5011660;28;20045;-57
2022/11/15 12:25:12;;;;;;;9.02;4.35;;;11.90;99.90;;;;;;5012068;28;20148;-57
2022/11/15 12:27:40;;;;;;;;;;;12.00;99.90;;;;;;5014943;28;20058;-57
2022/11/15 12:30:16;;;;;;;8.43;3.70;;;11.90;99.90;;;;;;5013309;28;20226;-57
2022/11/15 12:33:01;;;;;;;9.98;4.50;;;11.90;99.90;;;;;;5012298;28;20493;-57
2022/11/15 12:35:27;;;;;;;10.02;4.13;;;12.10;99.90;;;;;;5012754;28;20079;-57
2022/11/15 12:37:57;;;;;;;7.40;4.00;;;12.10;99.90;;;;;;5014374;28;20140;-57
2022/11/15 12:40:34;;;;;;;7.55;3.67;;;12.00;99.90;;;;;;5014213;28;20207;-56
2022/11/15 12:43:13;;;;;;;7.25;3.92;;;12.20;99.90;;;;;;5015441;28;20128;-55
2022/11/15 12:45:41;;;;;;;10.02;4.00;;;12.20;99.90;;;;;;5015874;28;20103;-57
2022/11/15 12:48:15;;;;;;;7.45;3.50;;;12.20;99.90;;;;;;5011017;28;20053;-57
2022/11/15 12:50:51;;;;;;;11.52;3.90;;;12.40;99.90;;;;;;5017548;28;20037;-56
2022/11/15 12:53:35;;;;;;;8.20;3.25;;;14.20;99.90;;;;;;5012684;28;20045;-56
2022/11/15 12:56:12;;;;;;;6.93;3.33;;;12.00;99.90;;;;;;5013421;28;20041;-57
2022/11/15 12:58:48;;;;;;;8.80;3.22;;;12.10;99.90;;;;;;5017175;28;24940;-57
2022/11/15 13:01:54;;;;;;;7.38;3.28;;;12.10;99.90;;;;;;5014908;28;20042;-57
2022/11/15 13:04:24;;;;;;;12.55;7.05;;;12.30;99.90;;;;;;5010968;28;20946;-57
2022/11/15 13:06:52;;;;;;;8.52;3.63;;;13.40;99.90;;;;;;5014993;28;20060;-57